Time;durP1;ratioP1;P1;durP2;ratioP2;P2;SDS_P1;SDS_P2;PMS_P1;PMS_P2;Temp;Humidity;BMP_temperature;BMP_pressure;BME280_temperature;BME280_humidity;BME280_pressure;Samples;Min_cycle;Max_cycle;Signal;HPM_P1;HPM_P2
2020/12/18 00:02:04;;;;;;;11.98;2.95;;;6.50;99.90;;;;;;5095610;28;20028;-74
2020/12/18 00:04:29;;;;;;;9.27;2.95;;;6.60;99.90;;;;;;5095854;28;20020;-73
2020/12/18 00:06:55;;;;;;;9.25;3.67;;;6.60;99.90;;;;;;5095831;28;20024;-73
2020/12/18 00:09:20;;;;;;;12.10;4.65;;;6.60;99.90;;;;;;5094330;28;20020;-73
2020/12/18 00:11:46;;;;;;;7.97;3.67;;;6.60;99.90;;;;;;5094986;28;20039;-75
2020/12/18 00:14:12;;;;;;;12.93;3.83;;;6.60;99.90;;;;;;5094499;28;20019;-75
2020/12/18 00:16:38;;;;;;;10.38;3.78;;;6.60;99.90;;;;;;5096277;28;20043;-75
2020/12/18 00:19:04;;;;;;;7.72;3.50;;;6.60;99.90;;;;;;5095417;28;20024;-75
2020/12/18 00:21:30;;;;;;;15.45;3.47;;;6.60;99.90;;;;;;5096115;28;20070;-75
2020/12/18 00:23:55;;;;;;;11.13;3.58;;;6.60;99.90;;;;;;5096120;28;20020;-75
2020/12/18 00:26:21;;;;;;;10.15;4.82;;;6.60;99.90;;;;;;5094378;28;20024;-73
2020/12/18 00:28:47;;;;;;;14.10;3.90;;;6.60;99.90;;;;;;5094413;28;20077;-73
2020/12/18 00:31:13;;;;;;;13.20;4.97;;;6.60;99.90;;;;;;5093810;28;20116;-73
2020/12/18 00:33:39;;;;;;;14.85;3.47;;;6.50;99.90;;;;;;5094514;28;20077;-73
2020/12/18 00:36:10;;;;;;;9.15;4.38;;;6.60;99.90;;;;;;5094535;28;20431;-75
2020/12/18 00:38:35;;;;;;;13.75;3.67;;;6.60;99.90;;;;;;5094397;28;20012;-75
2020/12/18 00:41:01;;;;;;;12.93;4.22;;;6.60;99.90;;;;;;5093908;28;20066;-75
2020/12/18 00:43:26;;;;;;;11.30;4.25;;;6.60;99.90;;;;;;5094401;28;20020;-74
2020/12/18 00:45:52;;;;;;;11.82;4.13;;;6.60;99.90;;;;;;5093806;28;20051;-74
2020/12/18 00:48:17;;;;;;;10.73;3.88;;;6.70;99.90;;;;;;5094543;28;20016;-75
2020/12/18 00:50:43;;;;;;;11.50;4.50;;;6.60;99.90;;;;;;5094111;28;20134;-75
2020/12/18 00:53:09;;;;;;;10.45;3.88;;;6.60;99.90;;;;;;5093944;28;20097;-75
2020/12/18 00:55:34;;;;;;;16.08;4.90;;;6.70;99.90;;;;;;5094430;28;20016;-74
2020/12/18 00:58:00;;;;;;;20.80;5.03;;;6.60;99.90;;;;;;5095707;28;20021;-74
2020/12/18 01:00:25;;;;;;;9.70;4.05;;;6.60;99.90;;;;;;5093712;28;20028;-76
2020/12/18 01:02:51;;;;;;;10.75;4.43;;;6.50;99.90;;;;;;5095445;28;20074;-74
2020/12/18 01:05:17;;;;;;;9.65;4.55;;;6.60;99.90;;;;;;5093680;28;20016;-74
2020/12/18 01:07:42;;;;;;;12.45;4.65;;;6.60;99.90;;;;;;5094723;28;20064;-74
2020/12/18 01:10:08;;;;;;;15.48;4.22;;;6.50;99.90;;;;;;5099191;28;20477;-74
2020/12/18 01:12:34;;;;;;;10.38;4.15;;;6.60;99.90;;;;;;5097354;28;20073;-74
2020/12/18 01:14:59;;;;;;;8.05;3.70;;;6.50;99.90;;;;;;5099115;28;20477;-74
2020/12/18 01:17:25;;;;;;;10.07;3.88;;;6.60;99.90;;;;;;5099208;28;20048;-74
2020/12/18 01:19:50;;;;;;;11.15;4.35;;;6.50;99.90;;;;;;5098613;28;20488;-74
2020/12/18 01:22:16;;;;;;;15.85;5.13;;;6.60;99.90;;;;;;5098853;28;20469;-74
2020/12/18 01:24:41;;;;;;;12.60;4.32;;;6.60;99.90;;;;;;5098702;28;20551;-74
2020/12/18 01:27:07;;;;;;;13.85;5.65;;;6.70;99.90;;;;;;5099112;28;20039;-74
2020/12/18 01:29:33;;;;;;;13.40;4.65;;;6.70;99.90;;;;;;5097663;28;20055;-75
2020/12/18 01:31:58;;;;;;;10.45;4.05;;;6.70;99.90;;;;;;5098386;28;20024;-75
2020/12/18 01:34:24;;;;;;;13.05;4.70;;;6.70;99.90;;;;;;5096817;28;20026;-74
2020/12/18 01:36:50;;;;;;;12.20;3.75;;;6.70;99.90;;;;;;5096568;28;20020;-76
2020/12/18 01:39:16;;;;;;;12.68;3.60;;;6.70;99.90;;;;;;5097307;28;20050;-76
2020/12/18 01:41:42;;;;;;;10.98;4.50;;;6.80;99.90;;;;;;5097221;28;20027;-76
2020/12/18 01:44:07;;;;;;;13.75;4.25;;;6.70;99.90;;;;;;5097022;28;20030;-73
2020/12/18 01:46:35;;;;;;;11.73;3.78;;;6.70;99.90;;;;;;5098662;28;20024;-73
2020/12/18 01:49:00;;;;;;;10.07;3.90;;;6.70;99.90;;;;;;5097185;28;20500;-73
2020/12/18 01:51:27;;;;;;;14.60;4.03;;;6.70;99.90;;;;;;5096819;28;20020;-73
2020/12/18 01:53:53;;;;;;;12.63;4.25;;;6.70;99.90;;;;;;5096962;28;20111;-75
2020/12/18 01:56:21;;;;;;;10.15;4.18;;;6.70;99.90;;;;;;5098053;28;20508;-74
2020/12/18 01:58:48;;;;;;;14.45;4.45;;;6.70;99.90;;;;;;5096685;28;20024;-75
2020/12/18 02:01:13;;;;;;;10.48;4.32;;;6.80;99.90;;;;;;5098131;28;20020;-75
2020/12/18 02:03:39;;;;;;;11.18;4.57;;;6.80;99.90;;;;;;5096724;28;20373;-74
2020/12/18 02:06:08;;;;;;;15.57;4.80;;;6.80;99.90;;;;;;5097191;28;20028;-75
2020/12/18 02:08:34;;;;;;;12.38;4.00;;;6.70;99.90;;;;;;5098388;28;20046;-75
2020/12/18 02:11:00;;;;;;;8.25;3.05;;;6.70;99.90;;;;;;5096474;28;20036;-75
2020/12/18 02:13:26;;;;;;;12.00;4.35;;;6.70;99.90;;;;;;5096759;28;20066;-75
2020/12/18 02:15:53;;;;;;;11.07;4.53;;;6.70;99.90;;;;;;5097675;28;20061;-74
2020/12/18 02:18:20;;;;;;;10.63;4.22;;;6.70;99.90;;;;;;5097236;28;20021;-74
2020/12/18 02:20:46;;;;;;;11.32;3.63;;;6.70;99.90;;;;;;5096898;28;20012;-74
2020/12/18 02:23:13;;;;;;;17.00;4.97;;;6.60;99.90;;;;;;5097620;28;20028;-75
2020/12/18 02:25:40;;;;;;;10.30;3.80;;;6.60;99.90;;;;;;5097101;28;20016;-74
2020/12/18 02:28:08;;;;;;;11.95;3.67;;;6.60;99.90;;;;;;5096140;28;20035;-74
2020/12/18 02:30:33;;;;;;;14.77;4.20;;;6.60;99.90;;;;;;5098340;28;20028;-73
2020/12/18 02:33:04;;;;;;;10.77;3.65;;;6.60;99.90;;;;;;5097818;28;20050;-73
2020/12/18 02:35:29;;;;;;;10.77;4.07;;;6.60;99.90;;;;;;5096672;28;20396;-73
2020/12/18 02:37:55;;;;;;;12.82;3.67;;;6.70;99.90;;;;;;5096079;28;20016;-74
2020/12/18 02:40:21;;;;;;;16.60;4.25;;;6.70;99.90;;;;;;5096986;28;20028;-74
2020/12/18 02:42:46;;;;;;;9.32;3.47;;;6.70;99.90;;;;;;5097424;28;20059;-73
2020/12/18 02:45:12;;;;;;;9.52;3.47;;;6.60;99.90;;;;;;5097918;28;20059;-73
2020/12/18 02:47:37;;;;;;;10.90;3.25;;;6.50;99.90;;;;;;5097201;28;20023;-74
2020/12/18 02:50:03;;;;;;;15.75;4.28;;;6.50;99.90;;;;;;5095515;28;20024;-73
2020/12/18 02:52:29;;;;;;;14.40;3.97;;;6.50;99.90;;;;;;5094930;28;20392;-73
2020/12/18 02:54:54;;;;;;;26.92;3.78;;;6.50;99.90;;;;;;5096038;28;20024;-74
2020/12/18 02:57:20;;;;;;;15.82;4.82;;;6.50;99.90;;;;;;5096942;28;20019;-73
2020/12/18 02:59:45;;;;;;;12.00;4.00;;;6.50;99.90;;;;;;5096390;28;20024;-76
2020/12/18 03:02:11;;;;;;;12.10;3.40;;;6.50;99.90;;;;;;5094993;28;20020;-74
2020/12/18 03:04:37;;;;;;;12.38;3.95;;;6.50;99.90;;;;;;5096527;28;20430;-74
2020/12/18 03:07:06;;;;;;;11.80;3.28;;;6.40;99.90;;;;;;5096372;28;20535;-73
2020/12/18 03:09:31;;;;;;;9.88;3.00;;;6.40;99.90;;;;;;5096136;28;20020;-73
2020/12/18 03:11:57;;;;;;;6.22;2.72;;;6.30;99.90;;;;;;5095361;28;20024;-74
2020/12/18 03:14:22;;;;;;;14.23;3.03;;;6.30;99.90;;;;;;5096540;28;20481;-74
2020/12/18 03:16:48;;;;;;;13.75;4.63;;;6.30;99.90;;;;;;5097079;28;20020;-76
2020/12/18 03:19:14;;;;;;;10.82;3.05;;;6.20;99.90;;;;;;5096701;28;20012;-76
2020/12/18 03:21:39;;;;;;;10.55;4.07;;;6.20;99.90;;;;;;5095256;28;20552;-75
2020/12/18 03:24:05;;;;;;;12.82;3.28;;;6.10;99.90;;;;;;5095557;28;20024;-75
2020/12/18 03:26:30;;;;;;;14.93;3.92;;;6.10;99.90;;;;;;5096271;28;20109;-75
2020/12/18 03:28:56;;;;;;;16.65;3.05;;;6.10;99.90;;;;;;5096180;28;20027;-75
2020/12/18 03:31:22;;;;;;;13.10;3.80;;;6.00;99.90;;;;;;5095838;28;20024;-75
2020/12/18 03:33:47;;;;;;;15.20;3.17;;;6.00;99.90;;;;;;5096603;28;20117;-75
2020/12/18 03:36:13;;;;;;;13.73;3.20;;;6.00;99.90;;;;;;5096125;28;20024;-74
2020/12/18 03:38:39;;;;;;;13.80;3.38;;;6.00;99.90;;;;;;5095754;28;20024;-74
2020/12/18 03:41:07;;;;;;;14.10;3.63;;;6.00;99.90;;;;;;5095811;28;20020;-76
2020/12/18 03:43:34;;;;;;;15.77;4.63;;;6.00;99.90;;;;;;5094977;28;20042;-76
2020/12/18 03:45:59;;;;;;;21.65;5.38;;;6.00;99.90;;;;;;5095943;28;20067;-74
2020/12/18 03:48:25;;;;;;;13.40;4.07;;;5.90;99.90;;;;;;5095619;28;20050;-75
2020/12/18 03:50:51;;;;;;;11.10;4.30;;;5.90;99.90;;;;;;5096175;28;20031;-75
2020/12/18 03:53:17;;;;;;;12.68;3.30;;;5.90;99.90;;;;;;5095707;28;20020;-75
2020/12/18 03:55:42;;;;;;;8.85;2.88;;;5.90;99.90;;;;;;5095260;28;20035;-73
2020/12/18 03:58:09;;;;;;;12.98;3.67;;;5.90;99.90;;;;;;5094774;28;20012;-75
2020/12/18 04:00:36;;;;;;;11.38;3.65;;;5.90;99.90;;;;;;5095572;28;20444;-74
2020/12/18 04:03:01;;;;;;;15.48;3.72;;;5.90;99.90;;;;;;5095725;28;20047;-75
2020/12/18 04:05:27;;;;;;;9.50;3.30;;;5.90;99.90;;;;;;5095643;28;20036;-75
2020/12/18 04:07:52;;;;;;;9.30;3.28;;;5.90;99.90;;;;;;5094745;28;20012;-73
2020/12/18 04:10:18;;;;;;;17.67;3.70;;;6.00;99.90;;;;;;5095259;28;20043;-73
2020/12/18 04:12:43;;;;;;;9.55;3.55;;;6.00;99.90;;;;;;5095392;28;20060;-73
2020/12/18 04:15:09;;;;;;;17.27;3.67;;;6.00;99.90;;;;;;5094519;28;20548;-76
2020/12/18 04:17:35;;;;;;;9.75;3.50;;;6.00;99.90;;;;;;5095570;28;20099;-75
2020/12/18 04:20:00;;;;;;;9.65;3.13;;;6.10;99.90;;;;;;5094941;28;20574;-74
2020/12/18 04:22:26;;;;;;;12.27;2.97;;;6.00;99.90;;;;;;5094860;28;20474;-75
2020/12/18 04:24:52;;;;;;;16.45;3.47;;;6.00;99.90;;;;;;5094703;28;20024;-75
2020/12/18 04:27:17;;;;;;;13.73;4.22;;;6.10;99.90;;;;;;5095175;28;20024;-74
2020/12/18 04:29:43;;;;;;;12.48;4.28;;;6.10;99.90;;;;;;5094933;28;20086;-74
2020/12/18 04:32:08;;;;;;;23.42;4.20;;;6.10;99.90;;;;;;5095157;28;20016;-76
2020/12/18 04:34:34;;;;;;;12.27;3.15;;;6.10;99.90;;;;;;5095074;28;20051;-74
2020/12/18 04:36:59;;;;;;;15.68;4.05;;;6.10;99.90;;;;;;5094308;28;20028;-76
2020/12/18 04:39:25;;;;;;;9.43;2.90;;;6.20;99.90;;;;;;5094876;28;20103;-76
2020/12/18 04:41:51;;;;;;;11.55;3.60;;;6.10;99.90;;;;;;5093400;28;20441;-76
2020/12/18 04:44:17;;;;;;;14.05;3.95;;;6.10;99.90;;;;;;5093822;28;20031;-76
2020/12/18 04:46:43;;;;;;;14.00;4.95;;;6.20;99.90;;;;;;5094742;28;20051;-75
2020/12/18 04:49:09;;;;;;;14.80;4.20;;;6.20;99.90;;;;;;5093295;28;20107;-76
2020/12/18 04:51:42;;;;;;;13.57;4.35;;;6.20;99.90;;;;;;5095349;28;20043;-74
2020/12/18 04:54:10;;;;;;;11.85;3.80;;;6.20;99.90;;;;;;5095349;28;20072;-74
2020/12/18 04:56:41;;;;;;;9.68;3.50;;;6.20;99.90;;;;;;5093821;28;20051;-74
2020/12/18 04:59:07;;;;;;;11.85;3.55;;;6.20;99.90;;;;;;5094301;28;20035;-76
2020/12/18 05:01:32;;;;;;;14.88;4.47;;;6.30;99.90;;;;;;5095607;28;20485;-76
2020/12/18 05:04:00;;;;;;;11.35;3.80;;;6.30;99.90;;;;;;5094659;28;20024;-76
2020/12/18 05:06:26;;;;;;;9.35;3.55;;;6.30;99.90;;;;;;5093935;28;20145;-75
2020/12/18 05:08:52;;;;;;;12.23;3.05;;;6.40;99.90;;;;;;5094797;28;20429;-75
2020/12/18 05:11:27;;;;;;;9.98;3.78;;;6.40;99.90;;;;;;5095505;28;20055;-74
2020/12/18 05:13:55;;;;;;;5.22;2.22;;;6.40;99.90;;;;;;5094829;28;20028;-75
2020/12/18 05:16:23;;;;;;;10.98;3.05;;;6.40;99.90;;;;;;5093506;28;20016;-73
2020/12/18 05:18:49;;;;;;;9.25;2.70;;;6.40;99.90;;;;;;5092266;28;20065;-74
2020/12/18 05:21:16;;;;;;;10.55;2.47;;;6.40;99.90;;;;;;5093929;28;20027;-74
2020/12/18 05:23:43;;;;;;;7.47;2.53;;;6.40;99.90;;;;;;5093885;28;20437;-75
2020/12/18 05:26:11;;;;;;;5.32;2.40;;;6.50;99.90;;;;;;5092580;28;20028;-75
2020/12/18 05:28:44;;;;;;;9.18;2.35;;;6.50;99.90;;;;;;5093700;28;20043;-75
2020/12/18 05:31:15;;;;;;;9.70;1.83;;;6.50;99.90;;;;;;5092844;28;20031;-75
2020/12/18 05:33:41;;;;;;;6.32;1.83;;;6.50;99.90;;;;;;5093882;28;20393;-74
2020/12/18 05:36:07;;;;;;;8.80;1.90;;;6.50;99.90;;;;;;5092662;28;20024;-73
2020/12/18 05:38:37;;;;;;;8.52;2.42;;;6.60;99.90;;;;;;5093055;28;20024;-76
2020/12/18 05:41:05;;;;;;;5.45;1.85;;;6.50;99.90;;;;;;5094102;28;20016;-76
2020/12/18 05:43:37;;;;;;;6.65;2.00;;;6.50;99.90;;;;;;5094393;28;20038;-73
2020/12/18 05:46:34;;;;;;;7.55;1.77;;;6.50;99.90;;;;;;5094335;28;20027;-74
2020/12/18 05:49:02;;;;;;;11.05;3.05;;;6.50;99.90;;;;;;5093585;28;20512;-75
2020/12/18 05:51:35;;;;;;;5.93;1.77;;;6.50;99.90;;;;;;5094377;28;20031;-74
2020/12/18 05:54:17;;;;;;;6.28;1.73;;;6.50;99.90;;;;;;5093794;28;20544;-76
2020/12/18 05:56:45;;;;;;;4.78;1.52;;;6.50;99.90;;;;;;5098055;28;20032;-75
2020/12/18 05:59:16;;;;;;;11.80;2.70;;;6.50;99.90;;;;;;5097070;28;20024;-74
2020/12/18 06:01:53;;;;;;;5.15;1.50;;;6.50;99.90;;;;;;5099067;28;20254;-76
2020/12/18 06:04:19;;;;;;;14.07;2.65;;;6.50;99.90;;;;;;5097916;28;20100;-76
2020/12/18 06:06:55;;;;;;;8.82;2.58;;;6.50;99.90;;;;;;5097587;28;20100;-73
2020/12/18 06:09:28;;;;;;;5.60;1.45;;;6.50;99.90;;;;;;5097656;28;20026;-73
2020/12/18 06:11:54;;;;;;;7.53;2.17;;;6.60;99.90;;;;;;5097734;28;20050;-73
2020/12/18 06:14:21;;;;;;;4.95;1.77;;;6.60;99.90;;;;;;5097711;28;20415;-73
2020/12/18 06:16:51;;;;;;;11.65;2.42;;;6.60;99.90;;;;;;5097058;28;20026;-74
2020/12/18 06:19:21;;;;;;;9.48;2.22;;;6.60;99.90;;;;;;5097314;28;20385;-74
2020/12/18 06:21:55;;;;;;;8.48;1.95;;;6.60;99.90;;;;;;5097088;28;20066;-73
2020/12/18 06:24:24;;;;;;;8.07;1.48;;;6.50;99.90;;;;;;5097513;28;20020;-75
2020/12/18 06:26:55;;;;;;;;;;;6.50;99.90;;;;;;5097910;28;20027;-74
2020/12/18 06:29:23;;;;;;;14.23;2.38;;;6.60;99.90;;;;;;5097112;28;20266;-76
2020/12/18 06:31:49;;;;;;;7.28;2.05;;;6.60;99.90;;;;;;5095989;28;20043;-76
2020/12/18 06:34:28;;;;;;;10.98;2.50;;;6.60;99.90;;;;;;5097101;28;20473;-75
2020/12/18 06:36:59;;;;;;;8.35;2.30;;;6.60;99.90;;;;;;5096956;28;20020;-75
2020/12/18 06:39:36;;;;;;;5.35;1.05;;;6.70;99.90;;;;;;5097227;28;20103;-77
2020/12/18 06:42:24;;;;;;;6.28;1.38;;;6.70;99.90;;;;;;5097290;28;20471;-77
2020/12/18 06:44:50;;;;;;;6.65;1.15;;;6.60;99.90;;;;;;5096227;28;20020;-77
2020/12/18 06:47:17;;;;;;;5.30;1.52;;;6.60;99.90;;;;;;5097234;28;20024;-77
2020/12/18 06:50:07;;;;;;;13.77;2.05;;;8.20;99.90;;;;;;5097682;28;20028;-76
2020/12/18 06:52:40;;;;;;;7.13;1.55;;;6.70;99.90;;;;;;5086265;28;20032;-75
2020/12/18 06:55:07;;;;;;;7.30;2.03;;;6.70;99.90;;;;;;5097334;28;20024;-77
2020/12/18 06:57:33;;;;;;;4.63;1.85;;;6.70;99.90;;;;;;5096465;28;20377;-76
2020/12/18 07:00:20;;;;;;;4.65;1.75;;;6.70;99.90;;;;;;5096416;28;20126;-76
2020/12/18 07:02:49;;;;;;;7.47;1.48;;;6.70;99.90;;;;;;5095788;28;20024;-74
2020/12/18 07:05:42;;;;;;;9.15;1.60;;;6.80;99.90;;;;;;5095932;28;20028;-75
2020/12/18 07:08:13;;;;;;;9.65;2.55;;;6.80;99.90;;;;;;5096641;28;20028;-75
2020/12/18 07:10:41;;;;;;;8.80;1.77;;;6.90;99.90;;;;;;5094612;28;20078;-76
2020/12/18 07:13:12;;;;;;;5.28;2.13;;;7.00;99.90;;;;;;5096522;28;20464;-74
2020/12/18 07:15:43;;;;;;;11.60;2.20;;;7.00;99.90;;;;;;5096956;28;20020;-74
2020/12/18 07:18:29;;;;;;;5.63;1.65;;;7.00;99.90;;;;;;5096551;28;20028;-74
2020/12/18 07:20:54;;;;;;;8.65;2.80;;;7.10;99.90;;;;;;5096683;28;20016;-74
2020/12/18 07:23:22;;;;;;;10.75;2.42;;;7.10;99.90;;;;;;5097189;28;20126;-75
2020/12/18 07:25:49;;;;;;;12.15;3.30;;;7.10;99.90;;;;;;5142424;22;20071;-76
2020/12/18 07:28:15;;;;;;;10.63;3.33;;;6.90;99.90;;;;;;5105539;22;20412;-77
2020/12/18 07:30:43;;;;;;;12.02;3.65;;;7.20;99.90;;;;;;5094634;28;20103;-74
2020/12/18 07:33:10;;;;;;;7.28;3.60;;;7.30;99.90;;;;;;5096707;28;20024;-73
2020/12/18 07:35:41;;;;;;;22.42;5.85;;;7.30;99.90;;;;;;5096208;28;20452;-75
2020/12/18 07:38:14;;;;;;;11.15;4.03;;;7.30;99.90;;;;;;5094520;28;20016;-74
2020/12/18 07:40:40;;;;;;;13.65;4.95;;;7.40;99.90;;;;;;5094948;28;20055;-76
2020/12/18 07:43:10;;;;;;;14.30;4.70;;;7.40;99.90;;;;;;5094164;28;20040;-76
2020/12/18 07:45:44;;;;;;;12.32;4.90;;;7.50;99.90;;;;;;5096631;28;20032;-76
2020/12/18 07:48:11;;;;;;;13.68;4.65;;;7.50;99.90;;;;;;5095328;28;20076;-76
2020/12/18 07:50:37;;;;;;;10.35;5.22;;;7.50;99.90;;;;;;5095309;28;20210;-75
2020/12/18 07:53:07;;;;;;;17.65;5.57;;;7.60;99.90;;;;;;5093749;28;20016;-76
2020/12/18 07:55:33;;;;;;;11.80;4.63;;;7.60;99.90;;;;;;5095382;28;20023;-74
2020/12/18 07:57:59;;;;;;;12.27;5.32;;;7.60;99.90;;;;;;5092127;28;20465;-75
2020/12/18 08:00:24;;;;;;;14.02;4.53;;;7.60;99.90;;;;;;5094855;28;20012;-74
2020/12/18 08:02:50;;;;;;;17.75;4.88;;;7.60;99.90;;;;;;5095598;28;20028;-74
2020/12/18 08:05:22;;;;;;;17.27;5.85;;;7.70;99.90;;;;;;5096292;28;20111;-74
2020/12/18 08:07:57;;;;;;;12.68;6.13;;;7.70;99.90;;;;;;5096412;28;20031;-74
2020/12/18 08:10:23;;;;;;;16.92;4.75;;;7.70;99.90;;;;;;5094663;28;20538;-73
2020/12/18 08:12:49;;;;;;;11.85;4.78;;;7.70;99.90;;;;;;5075313;28;20017;-74
2020/12/18 08:15:15;;;;;;;12.65;4.97;;;7.70;99.90;;;;;;5075531;28;20021;-74
2020/12/18 08:17:41;;;;;;;17.50;5.55;;;7.70;99.90;;;;;;5072675;28;20431;-74
2020/12/18 08:20:11;;;;;;;14.65;6.20;;;7.70;99.90;;;;;;5075008;28;20429;-75
2020/12/18 08:22:44;;;;;;;14.43;6.40;;;7.70;99.90;;;;;;5075431;28;20032;-75
2020/12/18 08:25:15;;;;;;;13.05;5.97;;;7.70;99.90;;;;;;5075430;28;20532;-75
2020/12/18 08:27:49;;;;;;;18.85;6.40;;;7.70;99.90;;;;;;5074890;28;20063;-74
2020/12/18 08:30:18;;;;;;;12.30;5.50;;;7.80;99.90;;;;;;5073662;28;20017;-75
2020/12/18 08:32:52;;;;;;;12.23;5.07;;;7.80;99.90;;;;;;5075164;28;20021;-75
2020/12/18 08:35:21;;;;;;;19.25;7.05;;;7.80;99.90;;;;;;5074968;28;20195;-75
2020/12/18 08:37:51;;;;;;;19.95;6.57;;;7.90;99.90;;;;;;5075165;28;20389;-75
2020/12/18 08:40:18;;;;;;;14.07;6.15;;;7.90;99.90;;;;;;5075022;28;20016;-75
2020/12/18 08:42:43;;;;;;;13.55;5.60;;;7.90;99.90;;;;;;5075209;28;20086;-74
2020/12/18 08:45:12;;;;;;;17.15;5.85;;;7.90;99.90;;;;;;5074847;28;20025;-75
2020/12/18 08:47:37;;;;;;;16.10;5.28;;;8.00;99.90;;;;;;5086460;28;20032;-75
2020/12/18 08:50:05;;;;;;;17.75;5.45;;;8.00;99.90;;;;;;5093858;28;20385;-75
2020/12/18 08:52:31;;;;;;;15.00;5.18;;;8.00;99.90;;;;;;5095035;28;20024;-74
2020/12/18 08:55:07;;;;;;;15.80;5.60;;;8.10;99.90;;;;;;5075856;28;20496;-74
2020/12/18 08:57:36;;;;;;;13.05;4.43;;;8.20;99.90;;;;;;5073626;28;20024;-75
2020/12/18 09:00:04;;;;;;;12.02;5.13;;;8.20;99.90;;;;;;5073872;28;20020;-75
2020/12/18 09:02:31;;;;;;;17.85;5.30;;;8.20;99.90;;;;;;5078473;28;20504;-74
2020/12/18 09:05:33;;;;;;;11.82;4.38;;;8.20;99.90;;;;;;5077417;28;20055;-74
2020/12/18 09:08:00;;;;;;;11.02;4.13;;;8.30;99.90;;;;;;5091342;28;20028;-75
2020/12/18 09:10:32;;;;;;;13.52;4.40;;;8.30;99.90;;;;;;5095418;28;20028;-73
2020/12/18 09:13:16;;;;;;;11.88;3.92;;;8.40;99.90;;;;;;5094439;28;20024;-74
2020/12/18 09:16:02;;;;;;;9.90;4.85;;;8.40;99.90;;;;;;5095201;28;20024;-74
2020/12/18 09:18:38;;;;;;;12.05;4.50;;;8.40;99.90;;;;;;5079081;28;20054;-74
2020/12/18 09:21:12;;;;;;;13.65;4.53;;;8.50;99.90;;;;;;5087454;28;20052;-76
2020/12/18 09:23:39;;;;;;;12.23;5.80;;;10.20;99.90;;;;;;5095216;28;20422;-76
2020/12/18 09:26:04;;;;;;;9.85;3.90;;;8.60;99.90;;;;;;5093345;28;20020;-76
2020/12/18 09:28:40;;;;;;;12.18;4.90;;;8.60;99.90;;;;;;5095481;28;20473;-76
2020/12/18 09:31:08;;;;;;;9.57;4.05;;;8.60;99.90;;;;;;5098112;28;20036;-76
2020/12/18 09:33:40;;;;;;;7.28;3.72;;;8.70;99.90;;;;;;5097576;28;20016;-76
2020/12/18 09:36:06;;;;;;;7.97;4.00;;;8.70;99.90;;;;;;5099244;28;20073;-76
2020/12/18 09:38:37;;;;;;;10.98;3.72;;;8.80;99.90;;;;;;5098738;28;20434;-76
2020/12/18 09:41:05;;;;;;;11.65;3.97;;;8.90;99.90;;;;;;5098537;28;20069;-76
2020/12/18 09:43:31;;;;;;;9.73;3.22;;;8.90;99.90;;;;;;5077152;28;20392;-75
2020/12/18 09:45:58;;;;;;;7.28;3.20;;;9.00;99.90;;;;;;5091034;28;20025;-75
2020/12/18 09:48:25;;;;;;;10.68;3.58;;;9.00;99.90;;;;;;5098822;28;20100;-75
2020/12/18 09:50:55;;;;;;;6.90;2.25;;;9.00;99.90;;;;;;5097756;28;20032;-75
2020/12/18 09:53:26;;;;;;;7.93;3.10;;;9.00;99.90;;;;;;5097792;28;20087;-75
2020/12/18 09:55:53;;;;;;;11.23;3.08;;;9.10;99.90;;;;;;5097735;28;20088;-75
2020/12/18 09:58:20;;;;;;;3.95;1.35;;;9.10;99.90;;;;;;5097068;28;20024;-75
2020/12/18 10:00:46;;;;;;;8.18;2.15;;;9.00;99.90;;;;;;5095783;28;20389;-75
2020/12/18 10:03:12;;;;;;;9.15;2.97;;;9.00;99.90;;;;;;5097314;28;20024;-75
2020/12/18 10:05:37;;;;;;;7.35;2.30;;;9.10;99.90;;;;;;5098780;28;20027;-75
2020/12/18 10:08:03;;;;;;;6.47;2.28;;;9.10;99.90;;;;;;5097249;28;20035;-75
2020/12/18 10:10:31;;;;;;;5.50;2.28;;;9.20;99.90;;;;;;5097414;28;20020;-75
2020/12/18 10:12:58;;;;;;;7.97;2.35;;;9.20;99.90;;;;;;5098830;28;20024;-75
2020/12/18 10:15:24;;;;;;;6.43;1.83;;;9.20;99.90;;;;;;5095404;28;20039;-74
2020/12/18 10:17:50;;;;;;;7.68;2.72;;;9.20;99.90;;;;;;5097453;28;20016;-75
2020/12/18 10:20:16;;;;;;;6.13;2.25;;;9.30;99.90;;;;;;5097883;28;20043;-75
2020/12/18 10:22:41;;;;;;;5.25;2.00;;;9.30;99.90;;;;;;5096886;28;20027;-75
2020/12/18 10:25:07;;;;;;;11.98;2.80;;;9.40;99.90;;;;;;5096945;28;20051;-75
2020/12/18 10:27:34;;;;;;;6.20;2.05;;;9.40;99.90;;;;;;5096957;28;20035;-75
2020/12/18 10:30:00;;;;;;;9.43;2.97;;;9.40;99.90;;;;;;5090858;28;20031;-75
2020/12/18 10:32:27;;;;;;;7.90;2.03;;;9.50;99.90;;;;;;5078939;28;20054;-75
2020/12/18 10:34:53;;;;;;;10.23;1.80;;;9.50;99.90;;;;;;5077768;28;20021;-75
2020/12/18 10:37:19;;;;;;;9.85;2.00;;;11.00;99.90;;;;;;5077908;28;20154;-75
2020/12/18 10:39:44;;;;;;;5.15;1.30;;;9.60;99.90;;;;;;5076453;28;20016;-75
2020/12/18 10:42:10;;;;;;;11.02;3.00;;;9.70;99.90;;;;;;5078814;28;20039;-75
2020/12/18 10:44:36;;;;;;;4.35;1.90;;;9.60;99.90;;;;;;5078676;28;20091;-74
2020/12/18 10:47:03;;;;;;;5.95;1.73;;;9.70;99.90;;;;;;5078240;28;20039;-75
2020/12/18 10:49:28;;;;;;;9.52;1.70;;;9.70;99.90;;;;;;5078212;28;20028;-74
2020/12/18 10:51:54;;;;;;;6.63;1.27;;;9.80;99.90;;;;;;5077898;28;20021;-75
2020/12/18 10:54:19;;;;;;;6.53;2.03;;;9.80;99.90;;;;;;5078314;28;20025;-74
2020/12/18 10:56:55;;;;;;;9.32;1.98;;;9.80;99.90;;;;;;5077799;28;20017;-74
2020/12/18 10:59:21;;;;;;;6.88;1.42;;;9.90;99.90;;;;;;5076197;28;20457;-74
2020/12/18 11:01:51;;;;;;;7.13;1.88;;;9.90;99.90;;;;;;5076595;28;20031;-73
2020/12/18 11:04:17;;;;;;;5.10;1.60;;;10.00;99.90;;;;;;5075491;28;20017;-73
2020/12/18 11:06:42;;;;;;;7.55;1.45;;;10.00;99.90;;;;;;5074591;28;20012;-74
2020/12/18 11:09:08;;;;;;;6.28;2.00;;;10.10;99.90;;;;;;5076344;28;20044;-75
2020/12/18 11:11:34;;;;;;;7.78;1.58;;;10.20;99.90;;;;;;5075037;28;20024;-75
2020/12/18 11:13:59;;;;;;;3.90;0.93;;;10.20;99.90;;;;;;5074281;28;20366;-75
2020/12/18 11:16:25;;;;;;;6.65;2.05;;;10.20;99.90;;;;;;5073559;28;20112;-75
2020/12/18 11:18:50;;;;;;;5.00;0.93;;;10.30;99.90;;;;;;5074199;28;20027;-75
2020/12/18 11:21:16;;;;;;;4.15;1.48;;;10.30;99.90;;;;;;5074302;28;20338;-75
2020/12/18 11:23:42;;;;;;;4.90;1.42;;;10.30;99.90;;;;;;5073181;28;20028;-76
2020/12/18 11:26:09;;;;;;;6.72;1.35;;;10.40;99.90;;;;;;5075007;28;20097;-75
2020/12/18 11:28:34;;;;;;;3.85;0.65;;;10.50;99.90;;;;;;5073918;28;20123;-74
2020/12/18 11:31:00;;;;;;;5.78;0.95;;;10.50;99.90;;;;;;5075708;28;20048;-74
2020/12/18 11:33:26;;;;;;;11.25;1.33;;;10.60;99.90;;;;;;5075881;28;20024;-74
2020/12/18 11:35:52;;;;;;;6.72;1.10;;;10.50;99.90;;;;;;5076541;28;20029;-75
2020/12/18 11:38:18;;;;;;;4.05;1.40;;;10.60;99.90;;;;;;5077016;28;20021;-76
2020/12/18 11:40:44;;;;;;;8.27;1.35;;;10.70;99.90;;;;;;5092152;28;20480;-75
2020/12/18 11:43:09;;;;;;;7.85;0.77;;;10.70;99.90;;;;;;5074187;28;20024;-75
2020/12/18 11:45:35;;;;;;;7.20;1.17;;;10.80;99.90;;;;;;5073923;28;20025;-73
2020/12/18 11:48:00;;;;;;;5.93;1.20;;;10.80;99.90;;;;;;5075020;28;20035;-73
2020/12/18 11:50:29;;;;;;;4.82;0.88;;;10.80;99.90;;;;;;5074487;28;20473;-74
2020/12/18 11:52:58;;;;;;;;;;;10.90;99.90;;;;;;5076273;28;20025;-74
2020/12/18 11:55:24;;;;;;;;;;;10.90;99.90;;;;;;5074912;28;19905;-74
2020/12/18 11:57:52;;;;;;;10.15;1.15;;;11.10;99.90;;;;;;5076720;28;20434;-74
2020/12/18 12:00:20;;;;;;;4.60;0.63;;;12.50;99.90;;;;;;5074071;28;20024;-74
2020/12/18 12:02:49;;;;;;;7.35;0.70;;;11.10;99.90;;;;;;5075511;28;20020;-74
2020/12/18 12:05:20;;;;;;;3.85;0.30;;;11.10;99.90;;;;;;5073366;28;20114;-74
2020/12/18 12:07:46;;;;;;;5.40;0.65;;;11.10;99.90;;;;;;5073590;28;20441;-74
2020/12/18 12:10:16;;;;;;;9.50;0.82;;;11.10;99.90;;;;;;5074798;28;20024;-73
2020/12/18 12:12:43;;;;;;;9.07;0.63;;;11.10;99.90;;;;;;5074720;28;20393;-74
2020/12/18 12:15:09;;;;;;;2.58;0.20;;;11.20;99.90;;;;;;5075713;28;20032;-74
2020/12/18 12:17:35;;;;;;;2.65;0.38;;;11.10;99.90;;;;;;5074192;28;20021;-74
2020/12/18 12:20:01;;;;;;;4.38;0.80;;;11.30;99.90;;;;;;5075268;28;20372;-74
2020/12/18 12:22:26;;;;;;;5.18;1.02;;;11.30;99.90;;;;;;5075358;28;20035;-74
2020/12/18 12:24:54;;;;;;;5.53;0.75;;;11.30;99.90;;;;;;5075853;28;20017;-74
2020/12/18 12:27:20;;;;;;;3.33;0.73;;;11.30;99.90;;;;;;5074384;28;20378;-74
2020/12/18 12:29:49;;;;;;;12.07;1.45;;;11.40;99.90;;;;;;5073686;28;20016;-74
2020/12/18 12:32:15;;;;;;;7.25;0.20;;;11.40;99.90;;;;;;5073882;28;20081;-74
2020/12/18 12:34:41;;;;;;;6.20;0.93;;;11.40;99.90;;;;;;5073310;28;20519;-74
2020/12/18 12:37:07;;;;;;;3.30;0.77;;;11.40;99.90;;;;;;5074175;28;20028;-74
2020/12/18 12:39:33;;;;;;;5.60;0.45;;;11.40;99.90;;;;;;5075011;28;20021;-74
2020/12/18 12:42:02;;;;;;;3.67;0.52;;;11.40;99.90;;;;;;5073621;28;20477;-74
2020/12/18 12:44:28;;;;;;;;;;;11.40;99.90;;;;;;5073809;28;20031;-74
2020/12/18 12:46:54;;;;;;;4.32;0.30;;;11.30;99.90;;;;;;5073508;28;19904;-74
2020/12/18 12:49:19;;;;;;;10.98;0.57;;;11.30;99.90;;;;;;5074158;28;20028;-74
2020/12/18 12:51:45;;;;;;;3.15;0.20;;;11.30;99.90;;;;;;5073375;28;20020;-74
2020/12/18 12:54:10;;;;;;;7.20;0.77;;;11.40;99.90;;;;;;5073254;28;20025;-74